Time;durP1;ratioP1;P1;durP2;ratioP2;P2;SDS_P1;SDS_P2;PMS_P1;PMS_P2;Temp;Humidity;BMP_temperature;BMP_pressure;BME280_temperature;BME280_humidity;BME280_pressure;Samples;Min_cycle;Max_cycle;Signal;HPM_P1;HPM_P2
2023/02/22 06:02:07;;;;;;;8.60;5.00;;;;;;;1.89;88.46;100588.92;107206;1256;94405;-61
2023/02/22 06:04:47;;;;;;;6.00;4.50;;;;;;;1.88;88.58;100596.30;107254;1260;94625;-62
2023/02/22 06:07:27;;;;;;;9.10;6.90;;;;;;;1.84;88.55;100596.79;107263;1260;81922;-58
2023/02/22 06:14:44;;;;;;;8.10;4.60;;;;;;;1.93;88.53;100604.79;107645;1255;99900;-59
2023/02/22 06:17:27;;;;;;;10.40;7.80;;;;;;;1.97;88.48;100609.39;107536;1257;88552;-58
2023/02/22 06:20:08;;;;;;;31.20;18.90;;;;;;;2.00;88.48;100611.06;107587;1257;95647;-61
2023/02/22 06:23:07;;;;;;;61.70;33.50;;;;;;;2.04;88.57;100615.31;107595;1254;79455;-58
2023/02/22 06:25:47;;;;;;;72.90;38.40;;;;;;;2.09;88.55;100617.20;107347;1257;81709;-58
2023/02/22 06:28:22;;;;;;;40.20;22.70;;;;;;;2.13;88.54;100621.13;107297;1257;99410;-58
2023/02/22 06:31:00;;;;;;;10.80;7.60;;;;;;;2.12;88.54;100623.92;107347;1259;88412;-57
2023/02/22 06:33:40;;;;;;;9.20;6.10;;;;;;;2.12;88.68;100631.56;107306;1259;94058;-57
2023/02/22 06:40:12;;;;;;;8.40;5.30;;;;;;;2.21;88.69;100639.66;107311;1256;82842;-60
2023/02/22 06:42:52;;;;;;;6.90;5.00;;;;;;;2.26;88.73;100641.48;107251;1260;99672;-58
2023/02/22 06:50:27;;;;;;;9.40;5.30;;;;;;;2.36;88.51;100644.89;107418;1254;93307;-57
2023/02/22 06:53:20;;;;;;;9.60;6.10;;;;;;;2.36;88.62;100646.88;107345;1255;81369;-56
2023/02/22 06:55:55;;;;;;;9.70;6.40;;;;;;;2.40;88.62;100645.46;106991;1263;81313;-57
2023/02/22 06:58:33;;;;;;;8.00;5.20;;;;;;;2.48;88.55;100645.08;106992;1265;100817;-58
2023/02/22 07:10:35;;;;;;;7.60;4.30;;;;;;;2.79;88.20;100658.25;107476;1256;77774;-61
2023/02/22 07:13:20;;;;;;;5.50;3.70;;;;;;;2.77;87.94;100662.86;107293;1257;82773;-61
2023/02/22 07:16:03;;;;;;;5.90;3.40;;;;;;;2.77;87.62;100667.99;107270;1260;99802;-61
2023/02/22 07:18:44;;;;;;;4.20;3.10;;;;;;;2.78;87.39;100672.02;107257;1257;89741;-57
2023/02/22 07:21:21;;;;;;;6.50;3.40;;;;;;;2.76;87.03;100675.34;106979;1261;95847;-58
2023/02/22 07:23:59;;;;;;;4.10;3.20;;;;;;;2.80;87.11;100671.13;106942;1259;81480;-57
2023/02/22 07:26:40;;;;;;;4.60;3.10;;;;;;;2.84;86.82;100669.19;106957;1260;83340;-58
2023/02/22 07:29:15;;;;;;;5.10;3.00;;;;;;;2.82;86.50;100669.36;107157;1257;99313;-58
2023/02/22 07:36:18;;;;;;;6.30;3.30;;;;;;;2.98;86.53;100672.92;107407;1259;92858;-60
2023/02/22 07:39:00;;;;;;;6.20;3.40;;;;;;;3.00;86.22;100670.03;107329;1257;79648;-62
2023/02/22 07:41:37;;;;;;;5.00;2.90;;;;;;;3.05;86.14;100669.97;107329;1257;82944;-63
2023/02/22 07:44:13;;;;;;;4.30;2.60;;;;;;;3.07;85.95;100671.98;107482;1257;99922;-61
2023/02/22 07:46:50;;;;;;;4.20;2.90;;;;;;;3.10;85.78;100673.28;107277;1258;89705;-62
2023/02/22 07:49:31;;;;;;;4.20;2.80;;;;;;;3.08;85.57;100673.98;107358;1259;93768;-59
2023/02/22 07:56:36;;;;;;;4.60;2.70;;;;;;;3.22;85.43;100672.03;107410;1253;79976;-60
2023/02/22 07:59:15;;;;;;;4.80;2.50;;;;;;;3.32;85.13;100669.02;107395;1254;99887;-61
2023/02/22 08:01:51;;;;;;;4.10;2.30;;;;;;;3.42;84.96;100665.92;107431;1255;88601;-58
2023/02/22 08:04:29;;;;;;;6.20;3.60;;;;;;;3.52;84.72;100671.42;107418;1260;92927;-59
2023/02/22 08:07:04;;;;;;;4.80;2.90;;;;;;;3.58;84.66;100670.90;107400;1255;79240;-60
2023/02/22 08:09:39;;;;;;;5.00;2.40;;;;;;;3.66;84.19;100669.09;107553;1254;81519;-62
2023/02/22 08:12:13;;;;;;;4.40;2.40;;;;;;;3.77;83.91;100672.06;109129;1257;102002;-61
2023/02/22 08:14:47;;;;;;;4.70;2.40;;;;;;;3.82;83.76;100679.91;109179;1256;88606;-57
2023/02/22 08:17:21;;;;;;;5.00;2.80;;;;;;;3.91;83.65;100684.10;109149;1258;94329;-57
2023/02/22 08:19:57;;;;;;;5.00;3.00;;;;;;;3.98;83.25;100684.11;109165;1255;78269;-58
2023/02/22 08:22:31;;;;;;;4.40;2.50;;;;;;;3.97;83.09;100686.87;109168;1256;82520;-60
2023/02/22 08:25:05;;;;;;;4.10;2.80;;;;;;;4.06;83.09;100688.73;109186;1256;98453;-57
2023/02/22 08:27:41;;;;;;;6.50;3.10;;;;;;;4.18;82.90;100692.77;109180;1256;88372;-59
2023/02/22 08:30:20;;;;;;;3.60;2.60;;;;;;;4.27;82.59;100687.35;109164;1256;95225;-58
2023/02/22 08:32:54;;;;;;;4.20;2.80;;;;;;;4.31;82.09;100691.73;109128;1256;77226;-61
2023/02/22 08:35:29;;;;;;;5.50;2.90;;;;;;;4.28;81.70;100693.11;109158;1255;82326;-58
2023/02/22 08:38:07;;;;;;;6.50;3.30;;;;;;;4.27;81.60;100690.91;109167;1255;100057;-60
2023/02/22 08:40:41;;;;;;;5.00;3.00;;;;;;;4.28;81.66;100694.35;109158;1257;88201;-61
2023/02/22 08:43:15;;;;;;;7.70;5.10;;;;;;;4.32;81.79;100696.84;109164;1257;94542;-60
2023/02/22 08:45:51;;;;;;;10.40;6.60;;;;;;;4.29;81.82;100699.95;109168;1256;78797;-60
2023/02/22 08:48:25;;;;;;;5.40;3.40;;;;;;;4.37;81.67;100698.55;109021;1257;82362;-57
2023/02/22 08:50:59;;;;;;;6.10;4.30;;;;;;;4.40;81.65;100701.09;109175;1255;99801;-58
2023/02/22 08:53:32;;;;;;;;;;;;;;;4.47;81.23;100703.59;109211;1255;86675;-59
2023/02/22 08:56:06;;;;;;;5.70;3.60;;;;;;;4.57;81.10;100703.05;109172;1257;93770;-59
2023/02/22 08:58:39;;;;;;;;;;;;;;;4.62;81.05;100705.16;109137;1257;78364;-59
2023/02/22 09:01:13;;;;;;;5.20;4.10;;;;;;;4.73;81.10;100705.96;109149;1255;82639;-59
2023/02/22 09:03:50;;;;;;;6.00;3.30;;;;;;;4.72;80.46;100703.94;109162;1257;98690;-62
2023/02/22 09:06:24;;;;;;;5.10;3.30;;;;;;;4.60;80.14;100712.23;109212;1255;88156;-62
2023/02/22 09:08:57;;;;;;;;;;;;;;;4.51;80.00;100711.11;109159;1255;95459;-59
2023/02/22 09:11:31;;;;;;;4.20;2.90;;;;;;;4.47;79.92;100711.27;109155;1257;82360;-59
2023/02/22 09:14:05;;;;;;;4.80;3.30;;;;;;;4.42;79.64;100713.44;109174;1256;82964;-59
2023/02/22 09:16:39;;;;;;;4.80;3.20;;;;;;;4.27;79.57;100718.70;109179;1256;99788;-59
2023/02/22 09:19:13;;;;;;;4.90;3.30;;;;;;;4.16;79.55;100719.52;109211;1257;88070;-58
2023/02/22 09:21:54;;;;;;;5.00;3.50;;;;;;;4.02;79.70;100719.73;109142;1257;95532;-58
2023/02/22 09:24:29;;;;;;;6.10;3.90;;;;;;;3.92;79.49;100723.55;108979;1257;79832;-59
2023/02/22 09:27:06;;;;;;;5.70;3.50;;;;;;;3.84;79.40;100727.48;109171;1258;80092;-59
2023/02/22 09:29:40;;;;;;;5.40;2.70;;;;;;;3.76;79.48;100721.25;109179;1257;97290;-58
2023/02/22 09:32:12;;;;;;;;;;;;;;;3.76;79.20;100722.67;109212;1257;87328;-58
2023/02/22 09:34:48;;;;;;;4.50;2.60;;;;;;;3.78;79.08;100730.87;109186;1255;95534;-62
2023/02/22 09:37:25;;;;;;;4.40;2.20;;;;;;;3.77;78.73;100733.30;109170;1255;80136;-62
2023/02/22 09:39:59;;;;;;;5.00;3.10;;;;;;;3.75;78.15;100732.74;109176;1255;82679;-63
2023/02/22 09:42:39;;;;;;;4.10;2.60;;;;;;;3.70;77.90;100731.64;109188;1257;99158;-61
2023/02/22 09:45:23;;;;;;;4.20;2.70;;;;;;;3.71;77.96;100736.17;109168;1257;88683;-59
2023/02/22 09:48:03;;;;;;;4.00;2.20;;;;;;;3.82;77.81;100732.16;109142;1257;94387;-62
2023/02/22 09:50:41;;;;;;;5.00;2.40;;;;;;;3.91;77.93;100734.84;109162;1255;79467;-62
2023/02/22 09:53:28;;;;;;;3.60;2.70;;;;;;;4.02;77.80;100736.52;109201;1256;83341;-59
2023/02/22 09:56:09;;;;;;;4.00;2.80;;;;;;;4.14;77.37;100739.70;109201;1257;98429;-59
2023/02/22 09:58:51;;;;;;;3.70;2.70;;;;;;;4.21;77.36;100740.79;109212;1256;88185;-62
2023/02/22 10:01:31;;;;;;;6.40;3.30;;;;;;;4.15;77.04;100749.39;108968;1256;95402;-59
2023/02/22 10:04:17;;;;;;;6.10;3.60;;;;;;;4.00;76.60;100750.17;109136;1257;80065;-61
2023/02/22 10:07:07;;;;;;;5.00;3.40;;;;;;;3.88;76.65;100756.31;109193;1255;82670;-59
2023/02/22 10:09:44;;;;;;;5.50;3.50;;;;;;;3.70;76.32;100761.34;109168;1257;99720;-60
2023/02/22 10:12:28;;;;;;;6.10;3.70;;;;;;;3.53;76.16;100764.48;109199;1255;87711;-59
2023/02/22 10:15:35;;;;;;;6.20;4.10;;;;;;;3.41;75.90;100771.06;109171;1256;95668;-63
2023/02/22 10:18:53;;;;;;;6.00;4.00;;;;;;;3.25;75.80;100780.65;109203;1256;80679;-59
2023/02/22 10:22:05;;;;;;;6.20;3.80;;;;;;;3.08;75.39;100783.73;109188;1255;82669;-59
2023/02/22 10:24:53;;;;;;;5.80;3.80;;;;;;;3.06;75.38;100786.84;109187;1256;99913;-59
2023/02/22 10:27:37;;;;;;;6.00;3.70;;;;;;;2.98;75.26;100784.45;109216;1255;86293;-62
2023/02/22 10:30:20;;;;;;;5.80;4.00;;;;;;;2.88;75.08;100787.09;109154;1255;91950;-62
2023/02/22 10:33:04;;;;;;;6.10;3.90;;;;;;;2.78;74.90;100789.70;109147;1256;77748;-61
2023/02/22 10:35:40;;;;;;;7.40;3.80;;;;;;;2.75;75.04;100788.55;109193;1256;83231;-62
2023/02/22 10:38:22;;;;;;;5.90;4.30;;;;;;;2.68;74.85;100785.80;109196;1256;99771;-60
2023/02/22 10:41:02;;;;;;;7.40;3.80;;;;;;;2.66;74.53;100792.52;109168;1255;86792;-61
2023/02/22 10:43:37;;;;;;;6.50;4.10;;;;;;;2.64;74.77;100794.29;109170;1256;94872;-58
2023/02/22 10:46:16;;;;;;;6.40;4.50;;;;;;;2.69;74.41;100797.27;109174;1255;78305;-58
2023/02/22 10:48:56;;;;;;;8.10;4.50;;;;;;;2.76;74.43;100795.98;109189;1256;83397;-63
2023/02/22 10:51:31;;;;;;;5.80;3.90;;;;;;;2.77;74.18;100791.97;109193;1255;99162;-63
2023/02/22 10:54:26;;;;;;;6.20;4.20;;;;;;;2.87;74.28;100788.98;109039;1256;88783;-59
2023/02/22 10:57:02;;;;;;;7.00;4.50;;;;;;;2.86;73.88;100786.05;109169;1254;95930;-59
2023/02/22 10:59:39;;;;;;;7.60;4.10;;;;;;;2.94;73.74;100785.65;109138;1256;78938;-61
2023/02/22 11:02:26;;;;;;;7.50;4.00;;;;;;;3.01;73.44;100787.25;109201;1255;81935;-61
2023/02/22 11:05:04;;;;;;;5.80;3.90;;;;;;;3.01;73.49;100785.06;109149;1255;99089;-62
2023/02/22 11:07:41;;;;;;;5.80;3.40;;;;;;;3.10;73.12;100782.34;109196;1255;87093;-59
2023/02/22 11:10:31;;;;;;;5.90;4.00;;;;;;;3.12;72.79;100785.22;109097;1256;94182;-58
2023/02/22 11:13:19;;;;;;;7.50;3.90;;;;;;;3.16;72.15;100783.96;109104;1255;79324;-61
2023/02/22 11:15:53;;;;;;;5.60;3.40;;;;;;;3.32;72.35;100780.20;109147;1255;81795;-61
2023/02/22 11:18:30;;;;;;;6.90;3.80;;;;;;;3.47;72.55;100775.33;109164;1255;98599;-61
2023/02/22 11:21:11;;;;;;;8.60;3.60;;;;;;;3.68;72.52;100774.52;109138;1256;89427;-61
2023/02/22 11:23:45;;;;;;;8.40;3.80;;;;;;;3.80;72.06;100773.62;109129;1255;94693;-59
2023/02/22 11:26:20;;;;;;;6.10;3.80;;;;;;;3.94;71.85;100773.06;109110;1255;78598;-59
2023/02/22 11:28:57;;;;;;;6.40;3.80;;;;;;;4.05;71.77;100773.45;109138;1256;82672;-61
2023/02/22 11:31:32;;;;;;;7.50;4.40;;;;;;;4.20;71.65;100774.77;109138;1256;98728;-59
2023/02/22 11:34:06;;;;;;;6.00;4.20;;;;;;;4.32;71.09;100773.17;109158;1255;88153;-60
2023/02/22 11:36:42;;;;;;;6.60;4.50;;;;;;;4.30;70.80;100778.34;109083;1255;94669;-60
2023/02/22 11:39:28;;;;;;;8.00;4.50;;;;;;;4.37;70.88;100777.82;109110;1255;80031;-60
2023/02/22 11:42:21;;;;;;;5.60;4.10;;;;;;;4.49;70.71;100779.55;109128;1255;83058;-60
2023/02/22 11:45:12;;;;;;;6.10;4.20;;;;;;;4.49;70.62;100781.50;109122;1255;99983;-61
2023/02/22 11:47:58;;;;;;;6.60;3.90;;;;;;;4.49;70.59;100780.66;109180;1256;88543;-59
2023/02/22 11:50:46;;;;;;;7.00;4.50;;;;;;;4.46;70.54;100784.15;109117;1255;95430;-60
2023/02/22 11:53:40;;;;;;;6.30;3.70;;;;;;;4.40;70.10;100783.69;109125;1255;79564;-57
2023/02/22 11:56:22;;;;;;;6.10;3.90;;;;;;;4.40;70.29;100785.61;109113;1256;81684;-57
2023/02/22 11:59:07;;;;;;;9.00;3.90;;;;;;;4.33;69.91;100782.66;109124;1255;97461;-60
2023/02/22 12:01:50;;;;;;;9.10;3.50;;;;;;;4.37;69.46;100786.26;109134;1256;87915;-60
2023/02/22 12:05:01;;;;;;;7.40;4.30;;;;;;;4.37;69.17;100789.83;109110;1255;95560;-60
2023/02/22 12:07:57;;;;;;;5.20;3.60;;;;;;;4.39;68.86;100778.71;109090;1256;79462;-60
2023/02/22 12:10:47;;;;;;;7.90;3.90;;;;;;;4.49;68.74;100777.49;109174;1255;80169;-60
2023/02/22 12:13:43;;;;;;;5.80;3.40;;;;;;;4.45;68.54;100782.69;109149;1255;100141;-58
2023/02/22 12:16:33;;;;;;;5.10;3.50;;;;;;;4.42;68.20;100785.20;109152;1255;89085;-60
2023/02/22 12:19:23;;;;;;;5.80;3.90;;;;;;;4.35;67.91;100781.39;109114;1255;93745;-60
2023/02/22 12:22:01;;;;;;;7.40;3.70;;;;;;;4.32;67.37;100784.41;109105;1255;76716;-60
2023/02/22 12:24:41;;;;;;;5.70;3.40;;;;;;;4.23;67.13;100785.23;109152;1255;80504;-57
2023/02/22 12:27:26;;;;;;;6.40;3.80;;;;;;;4.20;67.33;100785.32;109139;1255;99737;-59
2023/02/22 12:30:03;;;;;;;;;;;;;;;4.22;67.01;100778.87;109154;1255;88693;-59
2023/02/22 12:32:45;;;;;;;20.00;10.50;;;;;;;4.30;67.40;100786.34;108984;1256;95127;-60
2023/02/22 12:35:24;;;;;;;9.70;4.30;;;;;;;4.24;67.08;100786.33;109152;1255;78004;-60
2023/02/22 12:38:07;;;;;;;7.80;4.00;;;;;;;4.20;66.97;100797.61;109139;1255;82128;-57
2023/02/22 12:40:53;;;;;;;5.10;3.10;;;;;;;4.10;67.18;100795.59;109138;1255;99614;-58
2023/02/22 12:43:33;;;;;;;6.80;4.20;;;;;;;4.01;67.15;100797.89;109150;1255;88117;-61
2023/02/22 12:46:17;;;;;;;5.50;3.50;;;;;;;4.05;66.96;100799.14;109123;1255;94556;-61
2023/02/22 12:49:00;;;;;;;7.20;4.30;;;;;;;4.05;66.17;100801.27;109120;1255;78672;-57
2023/02/22 12:51:44;;;;;;;6.80;3.60;;;;;;;4.04;66.62;100801.16;108734;1255;555052;-57
2023/02/22 12:54:27;;;;;;;5.30;3.60;;;;;;;4.06;66.82;100800.98;109122;1256;99196;-59
2023/02/22 12:57:09;;;;;;;6.70;4.30;;;;;;;4.00;66.82;100801.57;109020;1255;87304;-63
2023/02/22 12:59:50;;;;;;;6.60;3.90;;;;;;;3.98;66.43;100805.42;108973;1256;95824;-61
2023/02/22 13:02:32;;;;;;;7.00;4.30;;;;;;;4.01;66.61;100808.08;108984;1256;79052;-61
2023/02/22 13:05:13;;;;;;;5.50;3.60;;;;;;;3.98;66.72;100813.48;109114;1256;82837;-61
2023/02/22 13:08:04;;;;;;;6.70;4.10;;;;;;;3.94;66.25;100817.95;109130;1255;98975;-61
2023/02/22 13:10:59;;;;;;;5.20;3.20;;;;;;;3.83;66.06;100820.38;109129;1255;88288;-58
2023/02/22 13:13:51;;;;;;;5.20;3.40;;;;;;;3.77;65.95;100821.48;109118;1256;95572;-59
2023/02/22 13:16:38;;;;;;;6.90;3.40;;;;;;;3.81;66.04;100825.16;109056;1256;78894;-58
2023/02/22 13:19:34;;;;;;;5.70;3.40;;;;;;;3.76;66.03;100829.77;108920;1257;80673;-59
2023/02/22 13:22:18;;;;;;;5.70;3.50;;;;;;;3.64;66.12;100835.27;109060;1256;99306;-59
2023/02/22 13:25:06;;;;;;;5.50;2.90;;;;;;;3.51;65.85;100833.52;109040;1257;90053;-59
2023/02/22 13:27:47;;;;;;;5.00;2.90;;;;;;;3.37;65.77;100834.75;109106;1255;95000;-62
2023/02/22 13:30:35;;;;;;;4.60;3.10;;;;;;;3.38;65.87;100835.09;109112;1256;77128;-62
2023/02/22 13:33:34;;;;;;;4.70;2.90;;;;;;;3.31;65.80;100836.16;109021;1256;81190;-61
2023/02/22 13:36:26;;;;;;;5.30;3.30;;;;;;;3.24;65.66;100833.64;109016;1256;97176;-61
2023/02/22 13:39:39;;;;;;;4.90;3.20;;;;;;;3.20;65.99;100837.40;109102;1255;88741;-59
2023/02/22 13:42:41;;;;;;;4.40;2.80;;;;;;;3.11;65.91;100838.70;109102;1255;95036;-58
2023/02/22 13:45:58;;;;;;;4.60;3.20;;;;;;;3.07;66.03;100838.29;108998;1256;77056;-58
2023/02/22 13:49:07;;;;;;;6.10;3.40;;;;;;;3.05;66.26;100839.73;108880;1256;82958;-59
2023/02/22 13:51:51;;;;;;;7.30;3.40;;;;;;;3.02;66.23;100840.30;109024;1256;96759;-59
2023/02/22 13:54:36;;;;;;;6.90;3.50;;;;;;;3.00;66.30;100838.33;108938;1257;88401;-61
2023/02/22 13:57:25;;;;;;;8.00;4.00;;;;;;;3.04;66.45;100844.08;108988;1256;95665;-61
2023/02/22 14:00:43;;;;;;;7.60;3.70;;;;;;;3.04;66.37;100846.77;109105;1255;79955;-61
2023/02/22 14:03:39;;;;;;;6.70;3.80;;;;;;;2.90;66.31;100853.59;109050;1256;80996;-58
2023/02/22 14:06:40;;;;;;;6.10;4.30;;;;;;;2.84;65.91;100853.96;109037;1256;98233;-60
2023/02/22 14:09:39;;;;;;;5.40;3.10;;;;;;;2.68;66.09;100856.01;109059;1256;88167;-58
2023/02/22 14:12:50;;;;;;;10.10;4.10;;;;;;;2.65;66.13;100859.63;108995;1256;95103;-58
2023/02/22 14:15:26;;;;;;;6.20;3.40;;;;;;;2.65;66.41;100859.83;108915;1257;78605;-58
2023/02/22 14:18:16;;;;;;;6.30;3.80;;;;;;;2.59;66.52;100860.36;109043;1256;82124;-63
2023/02/22 14:21:07;;;;;;;6.20;3.90;;;;;;;2.48;66.48;100856.98;108932;1257;98966;-59
2023/02/22 14:23:44;;;;;;;5.90;2.70;;;;;;;2.45;66.49;100866.67;108942;1257;87652;-58
2023/02/22 14:26:28;;;;;;;5.30;3.20;;;;;;;2.41;66.42;100865.27;108905;1258;95249;-57
2023/02/22 14:29:15;;;;;;;7.20;2.90;;;;;;;2.41;66.40;100867.17;108960;1256;77752;-61
2023/02/22 14:32:09;;;;;;;4.30;2.70;;;;;;;2.39;66.60;100862.89;109038;1256;83360;-61
2023/02/22 14:34:52;;;;;;;4.70;2.80;;;;;;;2.35;66.51;100867.14;109009;1256;99842;-61
2023/02/22 14:37:36;;;;;;;3.90;2.50;;;;;;;2.30;66.48;100865.45;109051;1256;88890;-61
2023/02/22 14:40:20;;;;;;;6.90;2.80;;;;;;;2.29;66.49;100867.48;108963;1256;93720;-62
2023/02/22 14:43:06;;;;;;;5.00;3.10;;;;;;;2.23;66.36;100868.27;109006;1256;80415;-59
2023/02/22 14:45:45;;;;;;;3.90;2.80;;;;;;;2.18;66.27;100867.82;109022;1256;81796;-59
2023/02/22 14:48:29;;;;;;;6.70;3.10;;;;;;;2.15;66.21;100867.92;108939;1256;97460;-61
2023/02/22 14:51:15;;;;;;;4.40;2.80;;;;;;;2.08;66.13;100870.23;108954;1256;87870;-61
2023/02/22 14:53:53;;;;;;;4.60;2.80;;;;;;;2.05;66.05;100873.17;108906;1256;94088;-62
2023/02/22 14:56:35;;;;;;;4.00;2.40;;;;;;;2.00;65.91;100878.25;108882;1258;79479;-61
2023/02/22 14:59:20;;;;;;;4.10;2.80;;;;;;;1.93;65.93;100872.92;108940;1256;82719;-60
2023/02/22 15:02:14;;;;;;;4.50;2.80;;;;;;;1.89;65.83;100869.70;108915;1256;100285;-64
2023/02/22 15:04:57;;;;;;;5.00;3.30;;;;;;;1.85;65.93;100872.80;109029;1256;87519;-62
2023/02/22 15:07:34;;;;;;;3.90;2.70;;;;;;;1.81;65.92;100875.25;109001;1256;92563;-64
2023/02/22 15:10:23;;;;;;;6.80;3.80;;;;;;;1.81;65.84;100878.36;109018;1256;78124;-63
2023/02/22 15:13:12;;;;;;;6.10;3.40;;;;;;;1.79;65.96;100871.00;109178;1255;82642;-58
2023/02/22 15:15:49;;;;;;;7.80;3.50;;;;;;;1.78;65.89;100872.12;109143;1256;98222;-57
2023/02/22 15:18:29;;;;;;;6.10;3.40;;;;;;;1.78;65.89;100873.77;109163;1255;88149;-59
2023/02/22 15:21:14;;;;;;;6.70;3.60;;;;;;;1.75;65.81;100872.35;109133;1255;92687;-60
2023/02/22 15:23:52;;;;;;;8.20;4.10;;;;;;;1.74;65.93;100872.96;109021;1257;78444;-63
2023/02/22 15:26:36;;;;;;;6.00;3.70;;;;;;;1.72;66.13;100877.22;109133;1256;82470;-63
2023/02/22 15:29:19;;;;;;;6.00;3.80;;;;;;;1.74;66.21;100880.77;109105;1256;98057;-62
2023/02/22 15:31:57;;;;;;;6.00;3.70;;;;;;;1.73;66.41;100885.81;109133;1255;87169;-62
2023/02/22 15:34:41;;;;;;;5.50;3.60;;;;;;;1.70;66.27;100886.45;109100;1255;94684;-60
2023/02/22 15:37:31;;;;;;;5.20;3.50;;;;;;;1.64;66.30;100886.92;109095;1256;78740;-60
2023/02/22 15:40:16;;;;;;;6.00;3.80;;;;;;;1.62;66.48;100889.20;109054;1255;83005;-60
2023/02/22 15:42:57;;;;;;;6.00;3.50;;;;;;;1.59;65.92;100885.35;109032;1257;98666;-62
2023/02/22 15:45:33;;;;;;;5.80;3.70;;;;;;;1.52;66.01;100886.84;108912;1256;88053;-63
2023/02/22 15:48:13;;;;;;;6.70;3.60;;;;;;;1.53;66.03;100889.42;109099;1256;94132;-62
2023/02/22 15:51:08;;;;;;;5.40;3.60;;;;;;;1.49;66.18;100890.10;109047;1255;77638;-61
2023/02/22 15:53:47;;;;;;;6.00;3.70;;;;;;;1.41;66.35;100889.64;109017;1255;80570;-62
2023/02/22 15:56:28;;;;;;;17.00;9.50;;;;;;;1.41;66.31;100893.05;109016;1256;99265;-63
2023/02/22 15:59:13;;;;;;;30.60;13.60;;;;;;;1.37;66.07;100892.66;109034;1255;86292;-63
2023/02/22 16:01:51;;;;;;;18.50;8.20;;;;;;;1.32;65.98;100895.89;109001;1255;95009;-62
2023/02/22 16:04:30;;;;;;;7.70;4.80;;;;;;;1.26;66.07;100902.56;109022;1256;78441;-60
2023/02/22 16:07:15;;;;;;;12.00;5.30;;;;;;;1.22;66.09;100904.98;109105;1255;82371;-61
2023/02/22 16:09:52;;;;;;;31.00;14.10;;;;;;;1.23;66.19;100901.55;109132;1255;99404;-61
2023/02/22 16:12:34;;;;;;;18.50;8.50;;;;;;;1.23;66.44;100904.39;109112;1256;87298;-62
2023/02/22 16:15:20;;;;;;;26.00;11.40;;;;;;;1.23;66.47;100909.90;109093;1255;93692;-62
2023/02/22 16:17:55;;;;;;;11.20;6.00;;;;;;;1.20;66.65;100913.49;109090;1256;78144;-61
2023/02/22 16:20:37;;;;;;;7.30;4.60;;;;;;;1.19;66.86;100917.44;109115;1255;80266;-61
2023/02/22 16:23:29;;;;;;;9.70;5.00;;;;;;;1.18;66.95;100915.76;109165;1255;98307;-61
2023/02/22 16:26:25;;;;;;;7.20;4.40;;;;;;;1.16;66.99;100916.10;109096;1255;88991;-61
2023/02/22 16:29:02;;;;;;;7.90;4.00;;;;;;;1.18;67.25;100918.73;109087;1255;94874;-59
2023/02/22 16:31:39;;;;;;;11.20;5.00;;;;;;;1.20;67.03;100917.88;109079;1256;80090;-59
2023/02/22 16:34:16;;;;;;;8.90;5.10;;;;;;;1.22;67.08;100918.61;109049;1256;82625;-60
2023/02/22 16:36:52;;;;;;;7.60;4.90;;;;;;;1.23;67.10;100925.48;109160;1255;99532;-61
2023/02/22 16:39:31;;;;;;;11.40;7.30;;;;;;;1.24;67.29;100926.65;109121;1256;87788;-57
2023/02/22 16:42:09;;;;;;;8.10;5.20;;;;;;;1.21;67.21;100927.06;109096;1255;93643;-61
2023/02/22 16:44:43;;;;;;;8.80;4.90;;;;;;;1.18;67.21;100930.82;109117;1255;78165;-61
2023/02/22 16:47:16;;;;;;;;;;;;;;;1.18;67.23;100929.09;109117;1255;82730;-60
2023/02/22 16:49:55;;;;;;;9.10;5.50;;;;;;;1.17;67.33;100929.50;109104;1256;98707;-58
2023/02/22 16:52:31;;;;;;;8.00;5.20;;;;;;;1.16;67.10;100931.67;109134;1255;89434;-60
2023/02/22 16:55:06;;;;;;;8.30;4.70;;;;;;;1.14;67.07;100933.80;109122;1255;94869;-62
2023/02/22 16:57:42;;;;;;;6.50;4.50;;;;;;;1.14;67.19;100934.65;109099;1256;79822;-63
2023/02/22 17:00:29;;;;;;;7.60;4.90;;;;;;;1.09;67.26;100934.73;109127;1255;82285;-62
2023/02/22 17:03:05;;;;;;;8.70;5.30;;;;;;;1.11;67.24;100935.45;109164;1255;98245;-62
2023/02/22 17:05:40;;;;;;;8.60;5.30;;;;;;;1.12;67.43;100936.80;109133;1255;86166;-63
2023/02/22 17:08:16;;;;;;;9.10;6.00;;;;;;;1.12;67.32;100934.16;109143;1255;94999;-64
2023/02/22 17:10:52;;;;;;;8.40;5.70;;;;;;;1.08;67.38;100941.71;109134;1255;78602;-63
2023/02/22 17:13:30;;;;;;;9.10;5.90;;;;;;;1.09;67.36;100940.04;109121;1255;81825;-59
2023/02/22 17:16:07;;;;;;;10.20;6.50;;;;;;;1.09;67.44;100940.88;108986;1255;101229;-62
2023/02/22 17:18:41;;;;;;;10.90;6.30;;;;;;;1.07;67.43;100939.80;109128;1256;86834;-59
2023/02/22 17:21:15;;;;;;;;;;;;;;;1.07;67.38;100938.42;109142;1255;94268;-60
2023/02/22 17:23:50;;;;;;;10.20;6.20;;;;;;;1.05;67.40;100941.54;108928;1256;78857;-60
2023/02/22 17:26:28;;;;;;;12.40;8.50;;;;;;;1.05;67.45;100940.66;109155;1255;81616;-59
2023/02/22 17:29:04;;;;;;;13.00;7.50;;;;;;;1.02;67.36;100942.52;109183;1256;99364;-61
2023/02/22 17:31:39;;;;;;;12.70;7.40;;;;;;;0.99;67.36;100938.64;109130;1255;86458;-60
2023/02/22 17:34:13;;;;;;;10.40;6.20;;;;;;;0.99;67.29;100938.88;109108;1256;95800;-58
2023/02/22 17:36:53;;;;;;;12.10;6.50;;;;;;;1.02;67.44;100940.59;109127;1256;77772;-59
2023/02/22 17:39:28;;;;;;;11.70;6.70;;;;;;;1.00;67.43;100939.48;109149;1255;82279;-61
2023/02/22 17:42:03;;;;;;;10.30;6.70;;;;;;;0.99;67.49;100939.70;109091;1256;99605;-61
2023/02/22 17:44:36;;;;;;;;;;;;;;;0.99;67.50;100938.10;109176;1255;86530;-60
2023/02/22 17:47:11;;;;;;;12.40;6.70;;;;;;;1.00;67.63;100940.34;109109;1256;94976;-60
2023/02/22 17:49:45;;;;;;;11.80;6.10;;;;;;;1.00;67.73;100942.14;109095;1256;78462;-61
2023/02/22 17:52:19;;;;;;;12.70;6.40;;;;;;;0.99;67.77;100941.85;109095;1256;82370;-61
2023/02/22 17:54:54;;;;;;;13.30;7.00;;;;;;;0.97;67.79;100941.98;109120;1256;98708;-61
2023/02/22 17:57:29;;;;;;;11.60;7.20;;;;;;;1.01;67.81;100941.35;109167;1255;88881;-59
2023/02/22 18:00:11;;;;;;;12.20;6.90;;;;;;;1.00;67.83;100941.23;109126;1256;93428;-61
2023/02/22 18:02:45;;;;;;;12.40;6.50;;;;;;;0.99;67.87;100941.86;109104;1255;79228;-60
2023/02/22 18:05:20;;;;;;;10.50;6.70;;;;;;;0.99;67.88;100944.34;109050;1256;82444;-60
2023/02/22 18:07:54;;;;;;;12.20;7.30;;;;;;;0.98;67.81;100940.02;109093;1255;98650;-59
2023/02/22 18:10:29;;;;;;;11.90;7.40;;;;;;;0.94;67.53;100945.94;109125;1256;86881;-59
2023/02/22 18:13:03;;;;;;;12.60;7.60;;;;;;;0.92;67.73;100942.75;109103;1256;94945;-61
2023/02/22 18:15:39;;;;;;;11.80;7.20;;;;;;;0.92;67.66;100951.64;109108;1256;77433;-60
2023/02/22 18:18:14;;;;;;;11.90;6.80;;;;;;;0.94;67.65;100952.52;109123;1256;83627;-60
2023/02/22 18:20:50;;;;;;;15.00;7.90;;;;;;;0.91;67.51;100953.85;109129;1255;98728;-60
2023/02/22 18:23:26;;;;;;;12.80;8.20;;;;;;;0.90;67.52;100964.01;109113;1256;88439;-57
2023/02/22 18:26:03;;;;;;;11.80;7.80;;;;;;;0.90;67.61;100961.37;109096;1256;94145;-58
2023/02/22 18:28:38;;;;;;;15.90;8.90;;;;;;;0.89;67.66;100962.67;109049;1256;79699;-61
2023/02/22 18:31:15;;;;;;;18.10;9.70;;;;;;;0.88;67.68;100968.17;109119;1255;84011;-61
2023/02/22 18:33:52;;;;;;;14.20;9.50;;;;;;;0.89;67.61;100965.48;108959;1256;97246;-61
2023/02/22 18:36:26;;;;;;;19.00;9.60;;;;;;;0.89;67.59;100965.14;109149;1255;87596;-61
2023/02/22 18:38:58;;;;;;;;;;;;;;;0.90;67.66;100967.88;109114;1256;95346;-61
2023/02/22 18:41:32;;;;;;;13.80;8.30;;;;;;;0.88;67.73;100969.30;109090;1259;80098;-61
2023/02/22 18:44:09;;;;;;;16.40;8.90;;;;;;;0.86;67.72;100968.75;109118;1256;80133;-62
2023/02/22 18:46:47;;;;;;;15.00;9.90;;;;;;;0.85;67.72;100962.27;109120;1256;98172;-62
2023/02/22 18:49:21;;;;;;;14.00;8.60;;;;;;;0.82;67.57;100968.55;109128;1255;88259;-59
2023/02/22 18:51:54;;;;;;;;;;;;;;;0.79;67.64;100966.95;109154;1256;94562;-59
2023/02/22 18:54:28;;;;;;;14.50;8.80;;;;;;;0.79;67.69;100969.30;109090;1255;79469;-61
2023/02/22 18:57:01;;;;;;;;;;;;;;;0.79;67.76;100972.63;109155;1255;83333;-61
2023/02/22 18:59:36;;;;;;;15.10;9.30;;;;;;;0.76;67.70;100969.84;109110;1255;97957;-63
2023/02/22 19:02:14;;;;;;;12.50;7.50;;;;;;;0.77;67.75;100964.84;109124;1256;88145;-63
2023/02/22 19:04:49;;;;;;;12.60;7.50;;;;;;;0.72;67.60;100958.60;109160;1256;95339;-63